createdAt,value
2018-12-30T00:02:24.504Z,76.53
2018-12-30T00:04:55.540Z,76.73
2018-12-30T00:07:26.633Z,76.89
2018-12-30T00:09:57.368Z,76.99
2018-12-30T00:12:28.134Z,77.31
2018-12-30T00:14:58.967Z,77.44
2018-12-30T00:17:29.715Z,77.35
2018-12-30T00:20:00.772Z,77.38
2018-12-30T00:22:31.664Z,77.62
2018-12-30T00:25:02.437Z,77.67
2018-12-30T00:27:33.158Z,77.59
2018-12-30T00:30:04.041Z,77.36
2018-12-30T00:32:34.815Z,77.33
2018-12-30T00:35:05.736Z,77.04
2018-12-30T00:37:36.471Z,77.58
2018-12-30T00:40:07.456Z,77.41
2018-12-30T00:42:38.469Z,77.82
2018-12-30T00:45:09.407Z,78.38
2018-12-30T00:47:40.146Z,78.91
2018-12-30T00:50:10.887Z,79.04
2018-12-30T00:52:41.659Z,78.79
2018-12-30T00:55:12.717Z,79.27
2018-12-30T00:57:43.455Z,78.89
2018-12-30T01:00:14.355Z,79.05
2018-12-30T01:02:45.122Z,79.12
2018-12-30T01:05:15.979Z,79.66
2018-12-30T01:07:46.704Z,79.40
2018-12-30T01:10:17.479Z,79.13
2018-12-30T01:12:48.274Z,79.03
2018-12-30T01:15:18.987Z,79.03
2018-12-30T01:17:49.772Z,79.26
2018-12-30T01:20:20.556Z,79.48
2018-12-30T01:22:51.323Z,79.43
2018-12-30T01:25:22.123Z,79.05
2018-12-30T01:27:52.914Z,78.95
2018-12-30T01:30:23.632Z,78.62
2018-12-30T01:32:54.404Z,76.82
2018-12-30T01:35:25.160Z,76.69
2018-12-30T01:37:55.913Z,76.30
2018-12-30T01:40:26.715Z,76.10
2018-12-30T01:42:57.732Z,76.60
2018-12-30T01:45:28.442Z,76.92
2018-12-30T01:47:59.297Z,77.54
2018-12-30T01:50:30.107Z,77.47
2018-12-30T01:53:01.088Z,77.04
2018-12-30T01:55:31.824Z,77.43
2018-12-30T01:58:02.742Z,77.88
2018-12-30T02:00:33.567Z,78.48
2018-12-30T02:03:04.356Z,78.44
2018-12-30T02:05:35.375Z,78.60
2018-12-30T02:08:06.137Z,79.03
2018-12-30T02:10:36.898Z,79.41
2018-12-30T02:13:07.694Z,79.35
2018-12-30T02:15:38.462Z,79.54
2018-12-30T02:18:09.313Z,78.67
2018-12-30T02:20:40.049Z,78.50
2018-12-30T02:23:10.838Z,78.59
2018-12-30T02:25:41.550Z,78.35
2018-12-30T02:28:12.587Z,77.58
2018-12-30T02:30:43.322Z,77.81
2018-12-30T02:33:14.051Z,77.43
2018-12-30T02:35:44.755Z,77.68
2018-12-30T02:38:15.530Z,78.22
2018-12-30T02:40:46.262Z,78.04
2018-12-30T02:43:17.005Z,77.36
2018-12-30T02:45:47.795Z,77.57
2018-12-30T02:48:18.504Z,77.50
2018-12-30T02:50:49.265Z,78.01
2018-12-30T02:53:20.134Z,77.83
2018-12-30T02:55:50.897Z,77.42
2018-12-30T02:58:21.741Z,77.63
2018-12-30T03:00:52.843Z,78.14
2018-12-30T03:03:24.275Z,77.72
2018-12-30T03:05:55.122Z,78.16
2018-12-30T03:08:25.893Z,78.31
2018-12-30T03:10:56.591Z,77.30
2018-12-30T03:13:27.344Z,77.82
2018-12-30T03:15:58.247Z,77.95
2018-12-30T03:18:29.040Z,78.31
2018-12-30T03:20:59.769Z,78.56
2018-12-30T03:23:30.537Z,78.57
2018-12-30T03:26:01.319Z,77.85
2018-12-30T03:28:32.049Z,76.83
2018-12-30T03:31:02.757Z,77.22
2018-12-30T03:33:33.502Z,77.44
2018-12-30T03:36:04.427Z,77.47
2018-12-30T03:38:35.153Z,77.33
2018-12-30T03:41:06.003Z,77.61
2018-12-30T03:43:36.967Z,77.26
2018-12-30T03:46:07.643Z,77.66
2018-12-30T03:48:38.426Z,77.72
2018-12-30T03:51:09.211Z,78.00
2018-12-30T03:53:40.026Z,77.82
2018-12-30T03:56:10.734Z,77.95
2018-12-30T03:58:41.535Z,78.05
2018-12-30T04:01:12.484Z,78.15
2018-12-30T04:03:43.214Z,78.12
2018-12-30T04:06:13.967Z,77.40
2018-12-30T04:08:44.679Z,77.70
2018-12-30T04:11:15.437Z,78.01
2018-12-30T04:13:46.196Z,77.55
2018-12-30T04:16:16.885Z,77.96
2018-12-30T04:18:47.714Z,78.37
2018-12-30T04:21:18.538Z,78.22
2018-12-30T04:23:49.305Z,78.01
2018-12-30T04:26:19.996Z,78.33
2018-12-30T04:28:50.741Z,78.25
2018-12-30T04:31:21.512Z,78.44
2018-12-30T04:33:52.309Z,78.63
2018-12-30T04:36:23.007Z,78.83
2018-12-30T04:38:53.755Z,78.96
2018-12-30T04:41:24.467Z,79.16
2018-12-30T04:43:55.199Z,79.12
2018-12-30T04:46:25.923Z,79.28
2018-12-30T04:48:56.681Z,79.22
2018-12-30T04:51:27.414Z,79.25
2018-12-30T04:53:58.154Z,79.06
2018-12-30T04:56:28.936Z,79.06
2018-12-30T04:58:59.725Z,79.12
2018-12-30T05:01:30.428Z,79.17
2018-12-30T05:04:02.085Z,78.82
2018-12-30T05:06:32.825Z,79.06
2018-12-30T05:09:04.856Z,79.38
2018-12-30T05:11:35.592Z,79.61
2018-12-30T05:14:06.503Z,79.78
2018-12-30T05:16:37.208Z,79.90
2018-12-30T05:19:07.959Z,79.70
2018-12-30T05:21:38.772Z,79.64
2018-12-30T05:24:09.592Z,79.56
2018-12-30T05:26:40.305Z,79.60
2018-12-30T05:29:11.043Z,79.89
2018-12-30T05:31:41.754Z,80.02
2018-12-30T05:34:12.578Z,79.93
2018-12-30T05:36:43.306Z,80.07
2018-12-30T05:39:14.033Z,80.31
2018-12-30T05:41:44.750Z,80.45
2018-12-30T05:44:15.526Z,80.64
2018-12-30T05:46:48.281Z,80.83
2018-12-30T05:49:19.039Z,81.06
2018-12-30T05:51:49.739Z,81.26
2018-12-30T05:54:20.489Z,81.12
2018-12-30T05:56:51.298Z,81.02
2018-12-30T05:59:22.024Z,81.14
2018-12-30T06:01:52.736Z,80.91
2018-12-30T06:04:23.478Z,80.87
2018-12-30T06:06:54.341Z,81.21
2018-12-30T06:09:25.082Z,81.32
2018-12-30T06:11:55.818Z,81.33
2018-12-30T06:14:26.614Z,81.18
2018-12-30T06:16:57.334Z,81.59
2018-12-30T06:19:28.065Z,81.63
2018-12-30T06:21:58.789Z,81.94
2018-12-30T06:24:29.536Z,82.00
2018-12-30T06:27:00.262Z,81.47
2018-12-30T06:29:30.978Z,81.62
2018-12-30T06:32:01.695Z,81.74
2018-12-30T06:34:32.462Z,81.99
2018-12-30T06:37:03.170Z,81.97
2018-12-30T06:39:33.981Z,82.03
2018-12-30T06:42:04.754Z,81.87
2018-12-30T06:44:35.486Z,81.83
2018-12-30T06:47:06.214Z,81.56
2018-12-30T06:49:37.111Z,81.99
2018-12-30T06:52:07.825Z,82.35
2018-12-30T06:54:38.592Z,82.41
2018-12-30T06:57:09.322Z,82.64
2018-12-30T06:59:40.117Z,82.41
2018-12-30T07:02:10.833Z,82.22
2018-12-30T07:04:41.588Z,82.49
2018-12-30T07:07:12.325Z,82.59
2018-12-30T07:09:43.257Z,82.66
2018-12-30T07:12:13.983Z,82.62
2018-12-30T07:14:44.693Z,82.76
2018-12-30T07:17:15.489Z,82.98
2018-12-30T07:19:46.286Z,82.86
2018-12-30T07:22:17.030Z,83.03
2018-12-30T07:24:47.769Z,82.85
2018-12-30T07:27:18.545Z,82.94
2018-12-30T07:29:49.261Z,82.94
2018-12-30T07:32:19.985Z,82.94
2018-12-30T07:34:50.708Z,82.79
2018-12-30T07:37:21.550Z,82.77
2018-12-30T07:39:52.345Z,82.94
2018-12-30T07:42:23.125Z,82.13
2018-12-30T07:44:53.844Z,82.17
2018-12-30T07:47:24.658Z,82.06
2018-12-30T07:49:55.498Z,82.13
2018-12-30T07:52:26.247Z,82.33
2018-12-30T07:54:56.944Z,82.25
2018-12-30T07:57:27.796Z,82.40
2018-12-30T07:59:58.538Z,82.09
2018-12-30T08:02:29.283Z,82.22
2018-12-30T08:05:00.005Z,81.95
2018-12-30T08:07:30.737Z,82.02
2018-12-30T08:10:01.493Z,82.08
2018-12-30T08:12:32.349Z,81.32
2018-12-30T08:15:03.062Z,81.44
2018-12-30T08:17:33.888Z,81.57
2018-12-30T08:20:05.077Z,81.09
2018-12-30T08:22:35.826Z,81.25
2018-12-30T08:25:06.613Z,81.85
2018-12-30T08:27:37.351Z,82.17
2018-12-30T08:30:08.297Z,81.53
2018-12-30T08:32:39.058Z,81.69
2018-12-30T08:35:09.780Z,81.89
2018-12-30T08:37:40.555Z,81.78
2018-12-30T08:40:11.275Z,81.66
2018-12-30T08:42:42.084Z,81.58
2018-12-30T08:45:12.877Z,81.60
2018-12-30T08:47:43.636Z,81.17
2018-12-30T08:50:14.348Z,81.11
2018-12-30T08:52:45.123Z,80.92
2018-12-30T08:55:15.904Z,80.65
2018-12-30T08:57:46.650Z,80.46
2018-12-30T09:00:17.367Z,80.20
2018-12-30T09:02:48.135Z,79.91
2018-12-30T09:05:18.860Z,79.81
2018-12-30T09:07:49.614Z,79.47
2018-12-30T09:10:20.476Z,79.35
2018-12-30T09:12:51.236Z,79.18
2018-12-30T09:15:22.092Z,79.31
2018-12-30T09:17:52.817Z,79.23
2018-12-30T09:20:23.559Z,79.18
2018-12-30T09:22:54.357Z,79.08
2018-12-30T09:25:25.090Z,78.49
2018-12-30T09:27:55.834Z,78.05
2018-12-30T09:30:26.585Z,77.98
2018-12-30T09:32:57.317Z,78.15
2018-12-30T09:35:28.303Z,78.48
2018-12-30T09:37:59.030Z,78.23
2018-12-30T09:40:29.758Z,78.16
2018-12-30T09:43:00.610Z,78.18
2018-12-30T09:45:31.312Z,78.58
2018-12-30T09:48:02.073Z,79.03
2018-12-30T09:50:32.814Z,78.77
2018-12-30T09:53:06.264Z,78.77
2018-12-30T09:55:36.958Z,78.78
2018-12-30T09:58:07.848Z,78.55
2018-12-30T10:00:38.563Z,78.52
2018-12-30T10:03:09.307Z,78.54
2018-12-30T10:05:40.091Z,78.44
2018-12-30T10:08:10.942Z,78.41
2018-12-30T10:10:41.730Z,78.38
2018-12-30T10:13:12.493Z,78.40
2018-12-30T10:15:43.400Z,78.80
2018-12-30T10:18:14.316Z,78.19
2018-12-30T10:20:45.033Z,77.50
2018-12-30T10:23:15.863Z,77.09
2018-12-30T10:25:46.585Z,76.97
2018-12-30T10:28:17.352Z,77.02
2018-12-30T10:30:48.198Z,77.30
2018-12-30T10:33:19.035Z,77.21
2018-12-30T10:35:49.738Z,79.83
2018-12-30T10:38:20.518Z,77.28
2018-12-30T10:40:51.277Z,77.03
2018-12-30T10:43:22.111Z,77.34
2018-12-30T10:45:52.831Z,78.39
2018-12-30T10:48:23.615Z,76.01
2018-12-30T10:50:54.383Z,76.13
2018-12-30T10:53:25.458Z,76.53
2018-12-30T10:55:56.179Z,76.86
2018-12-30T10:58:27.024Z,76.78
2018-12-30T11:00:57.809Z,76.71
2018-12-30T11:03:28.574Z,76.57
2018-12-30T11:05:59.339Z,76.73
2018-12-30T11:08:30.100Z,77.07
2018-12-30T11:11:00.864Z,77.25
2018-12-30T11:13:31.617Z,77.02
2018-12-30T11:16:02.333Z,77.18
2018-12-30T11:18:33.165Z,76.96
2018-12-30T11:21:03.978Z,76.82
2018-12-30T11:23:34.768Z,77.08
2018-12-30T11:26:05.590Z,77.32
2018-12-30T11:28:36.416Z,77.38
2018-12-30T11:31:07.148Z,77.55
2018-12-30T11:33:38.070Z,77.68
2018-12-30T11:36:08.849Z,77.91
2018-12-30T11:38:39.669Z,78.07
2018-12-30T11:41:10.409Z,77.92
2018-12-30T11:43:41.201Z,77.99
2018-12-30T11:46:11.977Z,77.79
2018-12-30T11:48:42.751Z,77.71
2018-12-30T11:51:13.501Z,77.81
2018-12-30T11:53:47.086Z,77.95
2018-12-30T11:56:17.979Z,77.90
2018-12-30T11:58:48.764Z,77.92
2018-12-30T12:01:19.510Z,77.81
2018-12-30T12:03:50.346Z,77.59
2018-12-30T12:06:21.118Z,77.61
2018-12-30T12:08:51.892Z,77.50
2018-12-30T12:11:22.664Z,77.11
2018-12-30T12:13:53.547Z,76.95
2018-12-30T12:16:24.315Z,77.06
2018-12-30T12:18:55.061Z,77.10
2018-12-30T12:21:25.764Z,77.12
2018-12-30T12:23:56.679Z,77.61
2018-12-30T12:26:27.434Z,77.60
2018-12-30T12:28:58.334Z,77.90
2018-12-30T12:31:29.103Z,77.61
2018-12-30T12:33:59.867Z,77.74
2018-12-30T12:36:30.638Z,77.71
2018-12-30T12:39:01.422Z,77.54
2018-12-30T12:41:32.303Z,77.64
2018-12-30T12:44:04.765Z,77.56
2018-12-30T12:46:35.572Z,77.50
2018-12-30T12:49:06.380Z,77.54
2018-12-30T12:51:37.218Z,77.42
2018-12-30T12:54:08.027Z,77.49
2018-12-30T12:56:38.785Z,77.16
2018-12-30T12:59:09.778Z,77.33
2018-12-30T13:01:40.510Z,77.22
2018-12-30T13:04:11.332Z,77.12
2018-12-30T13:06:42.156Z,77.15
2018-12-30T13:09:13.021Z,77.54
2018-12-30T13:11:43.782Z,77.76
2018-12-30T13:14:14.524Z,77.98
2018-12-30T13:16:45.293Z,77.86
2018-12-30T13:19:16.136Z,77.78
2018-12-30T13:21:46.846Z,78.25
2018-12-30T13:24:17.711Z,78.23
2018-12-30T13:26:48.529Z,78.28
2018-12-30T13:29:19.344Z,78.53
2018-12-30T13:31:50.038Z,78.57
2018-12-30T13:34:21.671Z,78.60
2018-12-30T13:36:52.473Z,78.66
2018-12-30T13:39:23.270Z,78.77
2018-12-30T13:41:54.018Z,79.03
2018-12-30T13:44:24.809Z,78.95
2018-12-30T13:46:55.561Z,79.02
2018-12-30T13:49:26.472Z,79.16
2018-12-30T13:51:57.224Z,79.41
2018-12-30T13:54:28.075Z,79.71
2018-12-30T13:56:58.863Z,79.83
2018-12-30T13:59:29.649Z,80.30
2018-12-30T14:02:00.469Z,80.71
2018-12-30T14:04:31.410Z,80.86
2018-12-30T14:07:02.159Z,81.14
2018-12-30T14:09:32.941Z,81.28
2018-12-30T14:12:03.775Z,81.50
2018-12-30T14:14:34.583Z,81.70
2018-12-30T14:17:06.886Z,81.76
2018-12-30T14:19:37.752Z,81.85
2018-12-30T14:22:08.617Z,81.91
2018-12-30T14:24:39.415Z,81.94
2018-12-30T14:27:10.784Z,81.81
2018-12-30T14:29:41.547Z,81.83
2018-12-30T14:32:12.290Z,81.81
2018-12-30T14:34:43.101Z,81.49
2018-12-30T14:37:13.854Z,81.28
2018-12-30T14:39:44.617Z,81.37
2018-12-30T14:42:15.412Z,81.34
2018-12-30T14:44:46.177Z,81.19
2018-12-30T14:47:17.016Z,81.02
2018-12-30T14:49:47.823Z,80.86
2018-12-30T14:52:18.559Z,80.89
2018-12-30T14:54:49.338Z,80.95
2018-12-30T14:57:20.092Z,81.06
2018-12-30T14:59:50.877Z,81.07
2018-12-30T15:02:21.744Z,80.82
2018-12-30T15:04:52.618Z,80.85
2018-12-30T15:07:23.372Z,80.45
2018-12-30T15:09:54.129Z,80.49
2018-12-30T15:12:24.957Z,81.86
2018-12-30T15:14:56.060Z,80.97
2018-12-30T15:17:26.902Z,81.53
2018-12-30T15:19:57.840Z,82.29
2018-12-30T15:22:28.630Z,82.71
2018-12-30T15:24:59.408Z,83.28
2018-12-30T15:27:30.330Z,83.64
2018-12-30T15:30:01.067Z,84.21
2018-12-30T15:32:31.888Z,84.54
2018-12-30T15:35:02.706Z,84.79
2018-12-30T15:37:33.501Z,85.06
2018-12-30T15:40:04.456Z,85.31
2018-12-30T15:42:35.435Z,85.43
2018-12-30T15:45:06.567Z,85.65
2018-12-30T15:47:37.442Z,85.70
2018-12-30T15:50:09.617Z,85.73
2018-12-30T15:52:40.472Z,85.58
2018-12-30T15:55:11.249Z,85.48
2018-12-30T15:57:42.082Z,85.29
2018-12-30T16:00:13.015Z,85.28
2018-12-30T16:02:43.880Z,85.21
2018-12-30T16:05:14.618Z,85.24
2018-12-30T16:07:45.429Z,85.17
2018-12-30T16:10:16.198Z,85.10
2018-12-30T16:12:46.940Z,85.12
2018-12-30T16:15:17.719Z,85.35
2018-12-30T16:17:48.525Z,85.56
2018-12-30T16:20:19.283Z,85.68
2018-12-30T16:22:50.034Z,85.67
2018-12-30T16:25:27.184Z,85.71
2018-12-30T16:27:53.434Z,85.67
2018-12-30T16:30:24.189Z,85.86
2018-12-30T16:32:54.967Z,86.03
2018-12-30T16:35:25.725Z,86.12
2018-12-30T16:37:56.689Z,87.18
2018-12-30T16:40:27.459Z,86.77
2018-12-30T16:42:58.272Z,86.59
2018-12-30T16:45:29.175Z,86.79
2018-12-30T16:47:59.970Z,87.04
2018-12-30T16:50:30.719Z,87.19
2018-12-30T16:53:01.944Z,87.40
2018-12-30T16:55:34.975Z,87.46
2018-12-30T16:58:07.304Z,87.62
2018-12-30T17:00:38.172Z,87.62
2018-12-30T17:03:09.047Z,87.98
2018-12-30T17:05:39.826Z,89.14
2018-12-30T17:08:10.740Z,88.62
2018-12-30T17:10:41.549Z,88.38
2018-12-30T17:13:15.074Z,88.45
2018-12-30T17:15:46.139Z,88.65
2018-12-30T17:18:16.936Z,88.88
2018-12-30T17:20:47.852Z,89.08
2018-12-30T17:23:18.720Z,89.07
2018-12-30T17:25:49.466Z,89.18
2018-12-30T17:28:20.397Z,89.26
2018-12-30T17:30:51.221Z,89.26
2018-12-30T17:33:22.032Z,89.29
2018-12-30T17:35:52.846Z,89.41
2018-12-30T17:38:23.723Z,89.62
2018-12-30T17:41:01.348Z,89.68
2018-12-30T17:43:27.023Z,89.58
2018-12-30T17:45:57.775Z,89.45
2018-12-30T17:48:28.604Z,89.53
2018-12-30T17:50:59.607Z,89.57
2018-12-30T17:53:30.400Z,89.64
2018-12-30T17:56:01.174Z,89.78
2018-12-30T17:58:32.349Z,89.95
2018-12-30T18:01:03.192Z,89.78
2018-12-30T18:03:34.030Z,89.66
2018-12-30T18:06:04.788Z,89.81
2018-12-30T18:08:35.591Z,89.91
2018-12-30T18:11:06.490Z,89.93
2018-12-30T18:13:37.255Z,89.91
2018-12-30T18:16:08.085Z,89.94
2018-12-30T18:18:38.848Z,89.86
2018-12-30T18:21:09.671Z,89.94
2018-12-30T18:23:40.554Z,90.09
2018-12-30T18:26:11.362Z,90.26
2018-12-30T18:28:42.209Z,90.19
2018-12-30T18:31:13.210Z,90.10
2018-12-30T18:33:44.007Z,90.18
2018-12-30T18:36:14.845Z,90.28
2018-12-30T18:38:46.009Z,90.27
2018-12-30T18:41:16.797Z,90.32
2018-12-30T18:43:47.586Z,90.40
2018-12-30T18:46:18.567Z,90.63
2018-12-30T18:48:49.489Z,90.77
2018-12-30T18:51:20.443Z,90.80
2018-12-30T18:53:51.242Z,90.60
2018-12-30T18:56:22.132Z,90.39
2018-12-30T18:58:53.090Z,90.63
2018-12-30T19:01:23.976Z,90.78
2018-12-30T19:03:54.782Z,90.85
2018-12-30T19:06:25.609Z,91.08
2018-12-30T19:08:56.402Z,91.12
2018-12-30T19:11:27.151Z,91.17
2018-12-30T19:13:57.953Z,91.19
2018-12-30T19:16:28.933Z,91.07
2018-12-30T19:18:59.822Z,91.01
2018-12-30T19:21:30.826Z,90.98
2018-12-30T19:24:01.583Z,91.09
2018-12-30T19:26:32.378Z,91.20
2018-12-30T19:29:03.182Z,91.23
2018-12-30T19:31:34.073Z,91.28
2018-12-30T19:34:04.866Z,91.17
2018-12-30T19:36:35.653Z,91.15
2018-12-30T19:39:08.469Z,91.15
2018-12-30T19:41:39.272Z,91.11
2018-12-30T19:44:10.105Z,91.17
2018-12-30T19:46:41.015Z,90.88
2018-12-30T19:49:11.822Z,90.76
2018-12-30T19:51:42.594Z,90.83
2018-12-30T19:54:13.448Z,91.23
2018-12-30T19:56:44.218Z,91.38
2018-12-30T19:59:15.024Z,91.40
2018-12-30T20:01:45.784Z,91.46
2018-12-30T20:04:16.686Z,91.61
2018-12-30T20:06:47.481Z,91.68
2018-12-30T20:09:18.328Z,91.75
2018-12-30T20:11:49.202Z,91.76
2018-12-30T20:14:20.033Z,91.80
2018-12-30T20:16:50.866Z,92.08
2018-12-30T20:19:21.741Z,92.25
2018-12-30T20:21:52.542Z,92.31
2018-12-30T20:24:23.382Z,92.48
2018-12-30T20:26:54.216Z,92.49
2018-12-30T20:29:25.023Z,92.53
2018-12-30T20:31:55.938Z,92.60
2018-12-30T20:34:26.906Z,92.60
2018-12-30T20:36:57.633Z,92.61
2018-12-30T20:39:28.458Z,92.71
2018-12-30T20:41:59.354Z,92.90
2018-12-30T20:44:30.210Z,93.07
2018-12-30T20:47:01.034Z,93.20
2018-12-30T20:49:31.993Z,93.36
2018-12-30T20:52:02.788Z,93.38
2018-12-30T20:54:33.667Z,93.51
2018-12-30T20:57:04.768Z,93.50
2018-12-30T20:59:35.597Z,93.55
2018-12-30T21:02:06.489Z,93.48
2018-12-30T21:04:37.291Z,93.33
2018-12-30T21:07:08.062Z,93.35
2018-12-30T21:09:38.989Z,93.51
2018-12-30T21:12:10.120Z,93.50
2018-12-30T21:14:41.077Z,93.56
2018-12-30T21:17:11.839Z,93.67
2018-12-30T21:19:42.619Z,93.63
2018-12-30T21:22:13.446Z,93.63
2018-12-30T21:24:44.288Z,93.66
2018-12-30T21:27:15.063Z,93.60
2018-12-30T21:29:45.854Z,93.57
2018-12-30T21:32:16.737Z,93.48
2018-12-30T21:34:47.562Z,93.37
2018-12-30T21:37:18.366Z,93.44
2018-12-30T21:39:49.187Z,93.53
2018-12-30T21:42:19.966Z,93.71
2018-12-30T21:44:50.792Z,93.73
2018-12-30T21:47:21.773Z,93.75
2018-12-30T21:49:52.577Z,93.69
2018-12-30T21:52:23.334Z,93.77
2018-12-30T21:54:54.258Z,93.87
2018-12-30T21:57:25.252Z,93.79
2018-12-30T21:59:56.226Z,93.78
2018-12-30T22:02:27.033Z,93.90
2018-12-30T22:04:57.832Z,93.96
2018-12-30T22:07:28.768Z,93.85
2018-12-30T22:09:59.687Z,93.84
2018-12-30T22:12:30.512Z,93.92
2018-12-30T22:15:01.416Z,94.01
2018-12-30T22:17:32.224Z,94.06
2018-12-30T22:20:02.964Z,94.15
2018-12-30T22:22:33.811Z,94.23
2018-12-30T22:25:04.668Z,94.25
2018-12-30T22:27:35.479Z,94.36
2018-12-30T22:30:07.234Z,94.29
2018-12-30T22:32:38.065Z,94.30
2018-12-30T22:35:09.067Z,94.36
2018-12-30T22:37:39.928Z,94.38
2018-12-30T22:40:10.849Z,94.27
2018-12-30T22:42:41.716Z,94.22
2018-12-30T22:45:12.488Z,94.30
2018-12-30T22:47:43.286Z,94.41
2018-12-30T22:50:14.059Z,94.56
2018-12-30T22:52:44.860Z,94.64
2018-12-30T22:55:15.676Z,94.60
2018-12-30T22:57:46.466Z,94.73
2018-12-30T23:00:33.047Z,94.77
2018-12-30T23:03:03.868Z,94.78
2018-12-30T23:05:34.740Z,94.81
2018-12-30T23:08:05.539Z,94.84
2018-12-30T23:10:36.342Z,94.83
2018-12-30T23:13:07.597Z,94.86
2018-12-30T23:15:38.420Z,94.85
2018-12-30T23:18:09.199Z,94.84
2018-12-30T23:20:40.057Z,94.73
2018-12-30T23:23:10.921Z,94.72
2018-12-30T23:25:41.708Z,94.75
2018-12-30T23:28:12.602Z,94.82
2018-12-30T23:30:43.343Z,94.86
2018-12-30T23:33:14.133Z,94.90
2018-12-30T23:35:44.898Z,94.84
2018-12-30T23:38:15.680Z,94.87
2018-12-30T23:40:46.499Z,94.96
2018-12-30T23:43:17.292Z,94.99
2018-12-30T23:45:48.050Z,94.99
2018-12-30T23:48:18.845Z,95.01
2018-12-30T23:50:49.615Z,95.02
2018-12-30T23:53:20.414Z,95.06
2018-12-30T23:55:51.309Z,95.08
2018-12-30T23:58:22.118Z,95.04
